Time;durP1;ratioP1;P1;durP2;ratioP2;P2;SDS_P1;SDS_P2;PMS_P1;PMS_P2;Temp;Humidity;BMP_temperature;BMP_pressure;BME280_temperature;BME280_humidity;BME280_pressure;Samples;Min_cycle;Max_cycle;Signal;HPM_P1;HPM_P2
2022/12/19 00:01:21;;;;;;;23.73;14.57;;;;;;;-141.59;100.00;61776.25;5041039;28;20199;-86
2022/12/19 00:03:49;;;;;;;24.07;13.93;;;;;;;-141.59;100.00;61776.25;5041293;28;20209;-86
2022/12/19 00:06:19;;;;;;;25.30;14.50;;;;;;;-141.59;100.00;61776.25;5046329;28;20271;-85
2022/12/19 00:08:47;;;;;;;28.10;15.80;;;;;;;-141.59;100.00;61776.25;5047323;28;20295;-86
2022/12/19 00:11:15;;;;;;;27.10;15.13;;;;;;;-141.59;100.00;61776.25;5045349;28;20292;-86
2022/12/19 00:13:43;;;;;;;25.20;14.80;;;;;;;-141.59;100.00;61776.25;5065846;28;20225;-86
2022/12/19 00:16:14;;;;;;;25.53;14.90;;;;;;;-141.59;100.00;61776.25;5044779;28;20335;-86
2022/12/19 00:18:41;;;;;;;26.77;14.40;;;;;;;-141.59;100.00;61776.25;5048669;28;20207;-86
2022/12/19 00:21:11;;;;;;;26.23;15.23;;;;;;;-141.59;100.00;61776.25;5048045;28;20232;-85
2022/12/19 00:23:38;;;;;;;25.70;14.67;;;;;;;-141.59;100.00;61776.25;5050474;28;20240;-86
2022/12/19 00:26:10;;;;;;;25.17;14.53;;;;;;;-141.59;100.00;61776.25;5047007;28;20273;-85
2022/12/19 00:28:38;;;;;;;28.30;15.00;;;;;;;-141.59;100.00;61776.25;5034495;28;20211;-86
2022/12/19 00:31:08;;;;;;;32.13;15.73;;;;;;;-141.59;100.00;61776.25;5035246;28;20264;-86
2022/12/19 00:33:37;;;;;;;28.80;15.07;;;;;;;-141.59;100.00;61776.25;5051375;28;20222;-85
2022/12/19 00:36:11;;;;;;;25.57;14.40;;;;;;;-141.59;100.00;61776.25;5040729;28;20203;-85
2022/12/19 00:38:39;;;;;;;32.03;15.90;;;;;;;-141.59;100.00;61776.25;5041157;28;20205;-85
2022/12/19 00:41:10;;;;;;;25.67;14.80;;;;;;;-141.59;100.00;61776.25;5047194;28;20198;-86
2022/12/19 00:43:38;;;;;;;30.03;15.33;;;;;;;-141.59;100.00;61776.25;5047536;28;20255;-86
2022/12/19 00:46:08;;;;;;;27.87;15.83;;;;;;;-141.59;100.00;61776.25;5032300;28;20203;-86
2022/12/19 00:48:37;;;;;;;26.63;15.17;;;;;;;-141.59;100.00;61776.25;5064510;28;20226;-84
2022/12/19 00:51:06;;;;;;;26.90;15.77;;;;;;;-141.59;100.00;61776.25;5049490;28;20202;-84
2022/12/19 00:53:34;;;;;;;29.43;14.33;;;;;;;-141.59;100.00;61776.25;5049149;28;20222;-86
2022/12/19 00:56:03;;;;;;;29.07;15.80;;;;;;;-141.59;100.00;61776.25;5042984;28;20537;-88
2022/12/19 00:58:30;;;;;;;27.73;15.73;;;;;;;-141.59;100.00;61776.25;5047311;28;20281;-87
2022/12/19 01:00:57;;;;;;;32.40;17.37;;;;;;;-141.59;100.00;61776.25;5040648;28;20320;-85
2022/12/19 01:03:24;;;;;;;35.27;18.43;;;;;;;-141.59;100.00;61776.25;5048080;28;20249;-86
2022/12/19 01:05:53;;;;;;;32.07;16.57;;;;;;;-141.59;100.00;61776.25;5048186;28;20198;-86
2022/12/19 01:08:20;;;;;;;26.20;14.43;;;;;;;-141.59;100.00;61776.25;5050147;28;20214;-86
2022/12/19 01:10:49;;;;;;;30.00;15.30;;;;;;;-141.59;100.00;61776.25;5047421;28;20258;-87
2022/12/19 01:13:17;;;;;;;27.93;14.93;;;;;;;-141.59;100.00;61776.25;5050187;28;20238;-86
2022/12/19 01:15:45;;;;;;;29.40;16.53;;;;;;;-141.59;100.00;61776.25;5049052;28;20206;-86
2022/12/19 01:18:13;;;;;;;26.27;15.30;;;;;;;-141.59;100.00;61776.25;5045532;28;20198;-85
2022/12/19 01:20:41;;;;;;;27.40;14.93;;;;;;;-141.59;100.00;61776.25;5049146;28;20203;-86
2022/12/19 01:23:11;;;;;;;30.40;16.13;;;;;;;-141.59;100.00;61776.25;5048056;28;20206;-85
2022/12/19 01:25:38;;;;;;;27.70;15.63;;;;;;;-141.59;100.00;61776.25;5047991;28;20203;-86
2022/12/19 01:28:07;;;;;;;29.90;15.37;;;;;;;-141.59;100.00;61776.25;5043278;28;20198;-84
2022/12/19 01:30:34;;;;;;;27.90;15.43;;;;;;;-141.59;100.00;61776.25;5044470;28;20211;-86
2022/12/19 01:33:01;;;;;;;27.73;14.27;;;;;;;-141.59;100.00;61776.25;5048219;28;20264;-88
2022/12/19 01:35:29;;;;;;;27.57;15.50;;;;;;;-141.59;100.00;61776.25;5043276;28;20198;-89
2022/12/19 01:37:56;;;;;;;27.37;15.63;;;;;;;-141.59;100.00;61776.25;5036200;28;20206;-88
2022/12/19 01:40:24;;;;;;;26.23;14.33;;;;;;;-141.59;100.00;61776.25;5039835;28;20186;-88
2022/12/19 01:42:51;;;;;;;24.50;14.03;;;;;;;-141.59;100.00;61776.25;5050159;28;20236;-88
2022/12/19 01:45:28;;;;;;;26.37;15.03;;;;;;;-141.59;100.00;61776.25;5048423;28;20232;-87
2022/12/19 01:48:01;;;;;;;23.37;14.23;;;;;;;-141.59;100.00;61776.25;5040520;28;20203;-88
2022/12/19 01:50:33;;;;;;;28.87;14.10;;;;;;;-141.59;100.00;61776.25;5040594;28;20211;-88
2022/12/19 01:53:01;;;;;;;24.43;14.30;;;;;;;-141.59;100.00;61776.25;5049291;28;20347;-88
2022/12/19 01:55:31;;;;;;;24.23;13.67;;;;;;;-141.59;100.00;61776.25;5047493;28;20296;-86
2022/12/19 01:57:59;;;;;;;26.33;14.20;;;;;;;-141.59;100.00;61776.25;5063458;28;20217;-87
2022/12/19 02:00:27;;;;;;;27.73;15.00;;;;;;;-141.59;100.00;61776.25;5046533;28;20252;-87
2022/12/19 02:03:00;;;;;;;24.07;13.67;;;;;;;-141.59;100.00;61776.25;5043435;28;20214;-88
2022/12/19 02:05:27;;;;;;;24.43;14.07;;;;;;;-141.59;100.00;61776.25;5038136;28;20215;-89
2022/12/19 02:07:54;;;;;;;26.83;15.13;;;;;;;-141.59;100.00;61776.25;5041648;28;20300;-88
2022/12/19 02:10:21;;;;;;;24.17;14.73;;;;;;;-141.59;100.00;61776.25;5033272;28;20228;-88
2022/12/19 02:12:51;;;;;;;28.43;15.23;;;;;;;-141.59;100.00;61776.25;5049776;28;20222;-88
2022/12/19 02:15:20;;;;;;;24.07;14.23;;;;;;;-141.59;100.00;61776.25;5045562;28;20210;-87
2022/12/19 02:18:03;;;;;;;25.03;13.93;;;;;;;-141.59;100.00;61776.25;5043008;28;20256;-89
2022/12/19 02:21:00;;;;;;;25.00;13.40;;;;;;;-141.59;100.00;61776.25;5047873;28;20297;-88
2022/12/19 02:24:01;;;;;;;24.47;14.50;;;;;;;-141.59;100.00;61776.25;5034045;28;20301;-88
2022/12/19 02:26:49;;;;;;;26.57;14.33;;;;;;;-141.59;100.00;61776.25;5039641;28;20297;-87
2022/12/19 02:30:00;;;;;;;24.40;12.70;;;;;;;-141.59;100.00;61776.25;5041150;28;20214;-88
2022/12/19 02:32:35;;;;;;;24.73;13.87;;;;;;;-141.59;100.00;61776.25;5031524;28;20331;-89
2022/12/19 02:35:10;;;;;;;24.80;14.33;;;;;;;-141.59;100.00;61776.25;5040303;28;20238;-88
2022/12/19 02:38:16;;;;;;;23.20;13.57;;;;;;;0.83;100.00;97204.00;5118150;27;20551;-85
2022/12/19 02:40:48;;;;;;;21.23;12.50;;;;;;;0.81;100.00;97197.97;5104957;28;20203;-86
2022/12/19 02:43:18;;;;;;;23.20;13.50;;;;;;;0.71;100.00;97190.91;5106327;28;20237;-86
2022/12/19 02:45:48;;;;;;;22.43;13.23;;;;;;;0.73;100.00;97198.72;5109407;28;20218;-86
2022/12/19 02:48:15;;;;;;;20.10;12.07;;;;;;;0.69;100.00;97187.53;5089934;28;20210;-85
2022/12/19 02:50:45;;;;;;;17.23;11.10;;;;;;;0.69;100.00;97192.84;5135771;27;20197;-85
2022/12/19 02:53:15;;;;;;;19.20;11.80;;;;;;;0.83;100.00;97199.53;5094568;28;20211;-85
2022/12/19 02:55:49;;;;;;;21.73;12.97;;;;;;;0.80;100.00;97178.53;5091347;28;20211;-86
2022/12/19 02:58:43;;;;;;;21.43;12.50;;;;;;;0.87;100.00;97170.78;5126191;27;20196;-85
2022/12/19 03:01:21;;;;;;;20.57;11.97;;;;;;;0.79;100.00;97160.06;5105745;28;20287;-86
2022/12/19 03:04:00;;;;;;;18.37;11.10;;;;;;;0.77;100.00;97155.75;5137571;27;20204;-85
2022/12/19 03:06:34;;;;;;;18.07;11.60;;;;;;;0.74;100.00;97147.25;5103856;28;20204;-85
2022/12/19 03:09:14;;;;;;;18.53;11.50;;;;;;;0.83;100.00;97146.34;5102152;28;20276;-86
2022/12/19 03:11:42;;;;;;;18.43;10.50;;;;;;;0.82;100.00;97151.81;5104799;28;20211;-86
2022/12/19 03:14:13;;;;;;;20.33;12.03;;;;;;;0.82;100.00;97157.13;5097383;28;20211;-85
2022/12/19 03:16:41;;;;;;;19.20;10.77;;;;;;;0.83;100.00;97164.13;5102387;28;20267;-85
2022/12/19 03:19:10;;;;;;;16.37;10.60;;;;;;;0.86;100.00;97171.78;5100489;28;20228;-85
2022/12/19 03:21:41;;;;;;;17.20;10.83;;;;;;;0.88;100.00;97164.50;5095748;28;20205;-85
2022/12/19 03:24:11;;;;;;;16.70;10.57;;;;;;;0.91;100.00;97162.38;5102315;28;20204;-85
2022/12/19 03:26:44;;;;;;;17.03;10.73;;;;;;;0.94;100.00;97174.50;5102496;28;20226;-85
2022/12/19 03:29:17;;;;;;;19.63;11.83;;;;;;;0.83;100.00;97164.13;5100990;28;20237;-86
2022/12/19 03:31:46;;;;;;;19.13;11.10;;;;;;;0.91;100.00;97182.81;5098914;28;20214;-86
2022/12/19 03:34:18;;;;;;;20.53;11.57;;;;;;;0.97;100.00;97200.81;5110242;28;20193;-85
2022/12/19 03:36:48;;;;;;;19.73;11.83;;;;;;;0.87;100.00;97181.44;5103805;28;20247;-85
2022/12/19 03:39:19;;;;;;;23.33;12.60;;;;;;;0.93;100.00;97202.97;5106276;28;20235;-86
2022/12/19 03:44:35;;;;;;;19.07;10.73;;;;;;;0.90;100.00;97202.41;5101422;27;20245;-86
2022/12/19 03:47:12;;;;;;;20.37;12.40;;;;;;;0.90;100.00;97202.41;5100558;28;20205;-85
2022/12/19 03:49:39;;;;;;;20.03;11.57;;;;;;;0.91;100.00;97201.44;5083031;28;20211;-85
2022/12/19 03:52:17;;;;;;;22.00;12.50;;;;;;;0.89;100.00;97198.91;5088413;28;20265;-86
2022/12/19 03:54:51;;;;;;;19.13;11.57;;;;;;;0.83;100.00;97193.38;5091446;28;20212;-85
2022/12/19 03:57:23;;;;;;;19.00;11.50;;;;;;;0.82;100.00;97210.28;5092518;28;20220;-85
2022/12/19 03:59:55;;;;;;;21.80;12.23;;;;;;;0.85;100.00;97207.34;5086515;28;20214;-85
2022/12/19 04:02:24;;;;;;;20.13;12.40;;;;;;;0.79;100.00;97214.06;5081841;28;20215;-85
2022/12/19 04:04:54;;;;;;;20.73;12.30;;;;;;;0.83;100.00;97230.59;5081667;28;20291;-85
2022/12/19 04:07:23;;;;;;;21.67;12.07;;;;;;;0.88;100.00;97233.63;5085793;28;20201;-85
2022/12/19 04:09:54;;;;;;;19.43;12.30;;;;;;;0.81;100.00;97222.75;5094894;28;20210;-85
2022/12/19 04:12:25;;;;;;;18.77;12.13;;;;;;;0.92;100.00;97232.34;5090186;28;20254;-85
2022/12/19 04:14:53;;;;;;;19.60;11.50;;;;;;;0.87;100.00;97238.09;5089935;28;20226;-85
2022/12/19 04:17:30;;;;;;;17.67;10.60;;;;;;;0.89;100.00;97238.78;5079367;28;20312;-85
2022/12/19 04:20:02;;;;;;;17.50;10.53;;;;;;;0.91;100.00;97257.28;5089328;28;20220;-85
2022/12/19 04:22:35;;;;;;;20.07;11.13;;;;;;;0.92;100.00;97253.63;5085113;28;20196;-85
2022/12/19 04:25:06;;;;;;;20.63;11.53;;;;;;;0.85;100.00;97256.00;5082801;28;20286;-85
2022/12/19 04:27:38;;;;;;;18.23;10.53;;;;;;;0.88;100.00;97257.56;5088138;28;20297;-85
2022/12/19 04:30:12;;;;;;;17.17;10.70;;;;;;;0.94;100.00;97265.78;5090374;28;20225;-86
2022/12/19 04:32:42;;;;;;;17.90;10.67;;;;;;;0.98;100.00;97268.97;5086789;28;20209;-86
2022/12/19 04:35:09;;;;;;;18.07;10.27;;;;;;;0.83;100.00;97255.34;5084779;28;20229;-85
2022/12/19 04:37:37;;;;;;;16.90;10.07;;;;;;;0.89;100.00;97256.56;5084492;28;20240;-85
2022/12/19 04:40:09;;;;;;;20.17;12.13;;;;;;;0.82;100.00;97235.06;5092089;28;20222;-84
2022/12/19 04:42:36;;;;;;;16.40;10.17;;;;;;;0.87;100.00;97237.25;5089841;28;20205;-85
2022/12/19 04:45:04;;;;;;;15.83;9.83;;;;;;;0.89;100.00;97235.31;5093762;28;20196;-85
2022/12/19 04:47:32;;;;;;;19.70;10.83;;;;;;;0.82;100.00;97219.09;5083084;28;20212;-85
2022/12/19 04:49:59;;;;;;;22.97;12.60;;;;;;;0.86;100.00;97224.94;5095350;28;20192;-86
2022/12/19 04:52:26;;;;;;;17.37;10.67;;;;;;;0.80;100.00;97204.28;5088795;28;20204;-85
2022/12/19 04:54:53;;;;;;;17.93;11.07;;;;;;;0.77;100.00;97196.63;5097259;28;20197;-85
2022/12/19 04:57:22;;;;;;;21.23;11.80;;;;;;;0.87;100.00;97205.34;5084802;28;20220;-85
2022/12/19 04:59:49;;;;;;;19.63;11.53;;;;;;;0.88;100.00;97181.28;5077046;28;20293;-85
2022/12/19 05:02:16;;;;;;;15.87;10.40;;;;;;;0.96;100.00;97194.66;5086357;28;20211;-85
2022/12/19 05:04:43;;;;;;;18.07;10.80;;;;;;;0.87;100.00;97163.66;5087091;28;20274;-85
2022/12/19 05:07:10;;;;;;;17.53;10.97;;;;;;;0.99;100.00;97173.09;5089410;28;20284;-85
2022/12/19 05:09:37;;;;;;;16.37;10.20;;;;;;;1.05;100.00;97172.50;5082587;28;20292;-85
2022/12/19 05:12:05;;;;;;;17.17;9.27;;;;;;;0.98;100.00;97157.28;5086213;28;20227;-85
2022/12/19 05:14:34;;;;;;;17.47;10.60;;;;;;;0.99;100.00;97149.16;5089332;28;20264;-85
2022/12/19 05:17:01;;;;;;;15.80;9.50;;;;;;;1.07;100.00;97156.38;5081830;28;20305;-84
2022/12/19 05:19:29;;;;;;;15.53;9.43;;;;;;;1.10;100.00;97148.94;5087963;28;20331;-85
2022/12/19 05:21:59;;;;;;;16.33;10.10;;;;;;;1.10;100.00;97145.44;5088389;28;20285;-84
2022/12/19 05:24:26;;;;;;;15.30;9.47;;;;;;;1.19;100.00;97152.53;5090125;28;20196;-86
2022/12/19 05:26:53;;;;;;;20.00;11.43;;;;;;;1.23;100.00;97147.72;5086391;28;20189;-84
2022/12/19 05:29:20;;;;;;;16.33;9.30;;;;;;;1.26;100.00;97148.25;5079125;28;20191;-85
2022/12/19 05:31:49;;;;;;;15.77;9.53;;;;;;;1.24;100.00;97155.56;5086453;28;20291;-85
2022/12/19 05:34:16;;;;;;;12.47;8.80;;;;;;;1.25;100.00;97151.91;5074590;28;20284;-84
2022/12/19 05:36:43;;;;;;;13.77;8.53;;;;;;;1.28;100.00;97138.28;5092031;28;20325;-85
2022/12/19 05:39:11;;;;;;;12.80;8.27;;;;;;;1.26;100.00;97136.78;5087712;28;20198;-85
2022/12/19 05:41:38;;;;;;;14.07;8.23;;;;;;;1.23;100.00;97143.22;5077144;28;20212;-85
2022/12/19 05:44:05;;;;;;;14.33;9.07;;;;;;;1.20;100.00;97142.69;5075765;28;20210;-85
2022/12/19 05:46:32;;;;;;;13.27;8.40;;;;;;;1.22;100.00;97160.19;5086784;28;20227;-85
2022/12/19 05:49:01;;;;;;;12.47;7.20;;;;;;;1.16;100.00;97136.03;5090632;28;20223;-85
2022/12/19 05:51:28;;;;;;;11.40;7.07;;;;;;;1.21;100.00;97139.03;5090322;28;20208;-85
2022/12/19 05:53:55;;;;;;;11.87;7.57;;;;;;;1.34;100.00;97166.13;5092562;28;20209;-85
2022/12/19 05:56:22;;;;;;;14.03;8.27;;;;;;;1.27;100.00;97168.56;5080510;28;20201;-84
2022/12/19 05:58:50;;;;;;;14.37;8.23;;;;;;;1.29;100.00;97168.38;5081481;28;20313;-85
2022/12/19 06:01:20;;;;;;;17.30;9.60;;;;;;;1.38;100.00;97176.28;5096615;28;20511;-85
2022/12/19 06:03:47;;;;;;;16.40;9.47;;;;;;;1.34;100.00;97172.28;5077936;28;20208;-85
2022/12/19 06:06:18;;;;;;;13.40;8.10;;;;;;;1.33;100.00;97175.91;5085063;28;20205;-85
2022/12/19 06:08:47;;;;;;;14.80;8.77;;;;;;;1.32;100.00;97179.56;5090102;28;20265;-85
2022/12/19 06:11:14;;;;;;;13.13;8.60;;;;;;;1.31;100.00;97171.72;5085410;28;20206;-85
2022/12/19 06:13:42;;;;;;;13.73;9.03;;;;;;;1.42;100.00;97185.66;5090353;28;20205;-85
2022/12/19 06:16:13;;;;;;;16.93;9.97;;;;;;;1.35;100.00;97179.28;5082660;28;20212;-84
2022/12/19 06:18:41;;;;;;;16.47;9.93;;;;;;;1.38;100.00;97175.44;5080743;28;20234;-85
2022/12/19 06:21:11;;;;;;;20.47;11.83;;;;;;;1.31;100.00;97167.25;5081634;28;20201;-84
2022/12/19 06:23:40;;;;;;;21.63;11.90;;;;;;;1.27;100.00;97160.56;5081406;28;20295;-85
2022/12/19 06:26:08;;;;;;;15.13;8.87;;;;;;;1.35;100.00;97179.28;5086090;28;20195;-85
2022/12/19 06:28:36;;;;;;;16.43;8.93;;;;;;;1.33;100.00;97175.09;5089174;28;20198;-85
2022/12/19 06:31:04;;;;;;;13.87;8.07;;;;;;;1.31;100.00;97177.88;5085450;28;20238;-85
2022/12/19 06:33:33;;;;;;;11.83;7.40;;;;;;;1.34;100.00;97188.25;5102577;28;20274;-85
2022/12/19 06:36:02;;;;;;;12.37;7.10;;;;;;;1.33;100.00;97191.88;5089919;28;20243;-85
2022/12/19 06:38:30;;;;;;;10.93;7.20;;;;;;;1.31;100.00;97193.84;5087738;28;20222;-85
2022/12/19 06:43:44;;;;;;;9.03;5.80;;;;;;;1.25;100.00;97194.47;5087383;28;20192;-85
2022/12/19 06:46:11;;;;;;;9.13;6.30;;;;;;;1.29;100.00;97206.47;5093880;28;20189;-85
2022/12/19 06:48:38;;;;;;;11.00;6.93;;;;;;;1.26;100.00;97200.63;5093490;28;20216;-85
2022/12/19 06:51:08;;;;;;;15.57;8.90;;;;;;;1.23;100.00;97200.94;5092168;28;20207;-85
2022/12/19 06:53:36;;;;;;;12.30;7.57;;;;;;;1.26;100.00;97220.09;5086355;28;20212;-85
2022/12/19 06:56:08;;;;;;;13.87;8.90;;;;;;;1.19;100.00;97205.72;5078316;28;20201;-85
2022/12/19 06:58:35;;;;;;;16.70;9.70;;;;;;;1.22;100.00;97213.38;5085686;28;20231;-85
2022/12/19 07:01:02;;;;;;;21.17;13.47;;;;;;;1.24;100.00;97213.25;5091131;28;20200;-85
2022/12/19 07:03:36;;;;;;;20.83;12.90;;;;;;;1.30;100.00;97218.78;5088845;28;20197;-86
2022/12/19 07:06:03;;;;;;;16.43;10.40;;;;;;;1.30;100.00;97218.78;5088764;28;20203;-85
2022/12/19 07:08:31;;;;;;;18.27;11.17;;;;;;;1.32;100.00;97222.13;5082200;28;20208;-85
2022/12/19 07:10:58;;;;;;;15.10;9.43;;;;;;;1.28;100.00;97210.13;5087787;28;20536;-84
2022/12/19 07:13:27;;;;;;;17.40;10.37;;;;;;;1.29;100.00;97213.63;5086964;28;20208;-86
2022/12/19 07:15:59;;;;;;;22.97;12.13;;;;;;;1.28;100.00;97204.78;5090891;28;20229;-85
2022/12/19 07:18:28;;;;;;;17.83;11.17;;;;;;;1.28;100.00;97214.59;5082161;28;20224;-85
2022/12/19 07:20:57;;;;;;;13.30;9.63;;;;;;;1.25;100.00;97210.44;5084461;28;20235;-85
2022/12/19 07:23:24;;;;;;;17.17;9.30;;;;;;;1.21;100.00;97195.75;5089451;28;20226;-85
2022/12/19 07:25:52;;;;;;;15.10;8.63;;;;;;;1.19;100.00;97204.88;5084703;28;20197;-85
2022/12/19 07:28:19;;;;;;;14.87;9.13;;;;;;;1.19;100.00;97202.22;5079887;28;20252;-85
2022/12/19 07:30:48;;;;;;;15.33;8.97;;;;;;;1.22;100.00;97196.59;5082688;28;20207;-86
2022/12/19 07:33:15;;;;;;;13.30;8.37;;;;;;;1.22;100.00;97189.44;5077962;28;20319;-86
2022/12/19 07:35:43;;;;;;;15.23;8.63;;;;;;;1.14;100.00;97182.22;5082865;28;20253;-85
2022/12/19 07:38:11;;;;;;;16.97;9.73;;;;;;;1.21;100.00;97187.75;5095470;27;20225;-85
2022/12/19 07:40:38;;;;;;;13.83;8.20;;;;;;;1.23;100.00;97184.97;5088007;28;20262;-86
2022/12/19 07:43:09;;;;;;;16.07;8.83;;;;;;;1.28;100.00;97191.50;5094221;28;20231;-85
2022/12/19 07:45:38;;;;;;;14.13;8.47;;;;;;;1.27;100.00;97176.53;5087261;28;20204;-85
2022/12/19 07:48:08;;;;;;;14.50;8.57;;;;;;;1.27;100.00;97175.69;5088950;28;20200;-85
2022/12/19 07:50:36;;;;;;;13.67;8.17;;;;;;;1.33;100.00;97185.72;5086210;28;20197;-85
2022/12/19 07:53:03;;;;;;;13.00;8.20;;;;;;;1.36;100.00;97183.56;5095976;28;20197;-85
2022/12/19 07:55:30;;;;;;;12.70;8.10;;;;;;;1.36;100.00;97178.25;5082860;28;20214;-85
2022/12/19 07:57:57;;;;;;;11.90;7.70;;;;;;;1.39;100.00;97180.63;5084686;28;20228;-86
2022/12/19 08:00:25;;;;;;;11.43;7.40;;;;;;;1.44;100.00;97178.34;5085930;28;20197;-85
2022/12/19 08:02:52;;;;;;;10.27;7.27;;;;;;;1.33;100.00;97159.13;5085955;28;20201;-85
2022/12/19 08:05:21;;;;;;;12.73;7.40;;;;;;;1.41;100.00;97183.97;5087817;28;20223;-86
2022/12/19 08:07:48;;;;;;;13.17;7.80;;;;;;;1.36;100.00;97164.94;5091304;28;20240;-85
2022/12/19 08:10:16;;;;;;;11.83;7.97;;;;;;;1.38;100.00;97178.09;5082465;28;20204;-85
2022/12/19 08:12:43;;;;;;;10.30;6.90;;;;;;;1.43;100.00;97187.31;5093627;28;20212;-85
2022/12/19 08:15:10;;;;;;;10.10;6.53;;;;;;;1.40;100.00;97171.66;5084936;28;20208;-85
2022/12/19 08:17:38;;;;;;;10.57;6.60;;;;;;;1.36;100.00;97158.81;5091487;28;20231;-85
2022/12/19 08:20:11;;;;;;;9.20;5.70;;;;;;;1.48;100.00;97169.06;5086661;28;20213;-85
2022/12/19 08:22:40;;;;;;;10.30;6.47;;;;;;;1.48;100.00;97166.41;5089037;28;20247;-85
2022/12/19 08:25:08;;;;;;;9.60;6.33;;;;;;;1.44;100.00;97162.38;5082645;28;20229;-86
2022/12/19 08:27:35;;;;;;;15.43;9.57;;;;;;;1.45;100.00;97165.84;5084248;28;20212;-85
2022/12/19 08:30:02;;;;;;;10.90;7.27;;;;;;;1.49;100.00;97169.91;5092664;28;20295;-85
2022/12/19 08:32:30;;;;;;;12.77;8.67;;;;;;;1.58;100.00;97176.97;5081800;28;20205;-85
2022/12/19 08:34:57;;;;;;;20.30;13.60;;;;;;;1.60;100.00;97172.31;5094750;28;20189;-85
2022/12/19 08:37:25;;;;;;;19.27;12.80;;;;;;;1.60;100.00;97172.31;5076433;28;20237;-85
2022/12/19 08:39:54;;;;;;;17.97;11.53;;;;;;;1.68;100.00;97179.53;5084815;28;20224;-85
2022/12/19 08:42:23;;;;;;;16.87;11.20;;;;;;;1.64;100.00;97162.19;5082508;28;20301;-84
2022/12/19 08:44:51;;;;;;;20.93;13.57;;;;;;;1.66;100.00;97158.38;5077993;28;20253;-85
2022/12/19 08:47:18;;;;;;;18.37;12.87;;;;;;;1.73;100.00;97163.91;5076165;28;20220;-86
2022/12/19 08:49:45;;;;;;;20.67;13.43;;;;;;;1.72;100.00;97164.91;5089278;28;20246;-85
2022/12/19 08:52:12;;;;;;;18.10;11.40;;;;;;;1.68;100.00;97160.91;5077753;28;20216;-85
2022/12/19 08:54:39;;;;;;;16.43;10.50;;;;;;;1.76;100.00;97182.25;5083343;28;20207;-85
2022/12/19 08:57:08;;;;;;;15.77;10.03;;;;;;;1.80;100.00;97194.25;5089931;28;20215;-86
2022/12/19 08:59:35;;;;;;;21.70;13.07;;;;;;;1.81;100.00;97190.59;5091355;28;20228;-85
2022/12/19 09:02:02;;;;;;;18.10;12.60;;;;;;;1.81;100.00;97186.13;5081116;28;20205;-85
2022/12/19 09:04:30;;;;;;;15.17;10.73;;;;;;;1.84;100.00;97182.31;5089083;28;20197;-85
2022/12/19 09:06:57;;;;;;;16.90;10.70;;;;;;;1.92;100.00;97193.03;5091425;28;20208;-85
2022/12/19 09:09:24;;;;;;;14.30;9.10;;;;;;;2.01;100.00;97204.56;5087143;28;20491;-85
2022/12/19 09:11:51;;;;;;;17.87;10.20;;;;;;;1.98;100.00;97200.38;5076980;28;20287;-86
2022/12/19 09:14:20;;;;;;;12.40;7.80;;;;;;;2.06;100.00;97204.94;5097648;28;20205;-85
2022/12/19 09:16:47;;;;;;;12.53;7.83;;;;;;;2.08;100.00;97213.59;5091736;28;20200;-86
2022/12/19 09:19:15;;;;;;;10.87;7.10;;;;;;;2.04;100.00;97207.75;5093077;28;20224;-85
2022/12/19 09:21:42;;;;;;;14.10;7.20;;;;;;;2.13;100.00;97228.13;5092709;28;20246;-85
2022/12/19 09:24:10;;;;;;;11.17;7.30;;;;;;;2.15;100.00;97226.13;5073471;28;20274;-85
2022/12/19 09:26:38;;;;;;;13.90;7.90;;;;;;;2.18;100.00;97219.69;5091238;28;20208;-86
2022/12/19 09:29:07;;;;;;;13.57;8.80;;;;;;;2.15;100.00;97215.47;5090632;28;20197;-85
2022/12/19 09:31:35;;;;;;;19.47;11.00;;;;;;;2.20;100.00;97218.53;5083884;28;20260;-85
2022/12/19 09:34:03;;;;;;;15.77;9.53;;;;;;;2.23;100.00;97223.53;5083856;28;20250;-86
2022/12/19 09:36:30;;;;;;;15.20;10.37;;;;;;;2.30;100.00;97228.25;5084662;28;20225;-86
2022/12/19 09:38:59;;;;;;;22.00;11.63;;;;;;;2.27;100.00;97213.41;5083715;28;20220;-88
2022/12/19 09:42:03;;;;;;;19.87;13.00;;;;;;;2.42;100.00;97218.97;5083071;28;20204;-88
2022/12/19 09:45:00;;;;;;;18.13;11.13;;;;;;;2.48;100.00;97232.50;5082880;28;20232;-87
2022/12/19 09:47:33;;;;;;;16.13;10.47;;;;;;;2.42;100.00;97217.16;5079699;28;20208;-88
2022/12/19 09:50:02;;;;;;;15.93;10.00;;;;;;;2.43;100.00;97224.16;5082848;28;20210;-83
2022/12/19 09:52:35;;;;;;;15.10;8.50;;;;;;;2.42;100.00;97232.31;5101986;27;20251;-85
2022/12/19 09:55:06;;;;;;;15.53;9.60;;;;;;;2.43;100.00;97223.31;5083746;28;20212;-86
2022/12/19 09:57:41;;;;;;;15.47;9.30;;;;;;;2.53;100.00;97234.72;5090862;28;20267;-88
2022/12/19 10:00:13;;;;;;;18.77;9.80;;;;;;;2.59;100.00;97223.41;5078233;28;20200;-88
2022/12/19 10:02:47;;;;;;;16.30;9.90;;;;;;;2.67;100.00;97220.78;5100487;28;20201;-89
2022/12/19 10:05:20;;;;;;;20.13;11.50;;;;;;;2.73;100.00;97220.13;5089207;28;20235;-89
2022/12/19 10:07:47;;;;;;;17.00;10.73;;;;;;;2.71;100.00;97221.31;5085255;28;20209;-89
2022/12/19 10:10:17;;;;;;;20.37;12.07;;;;;;;2.72;100.00;97226.47;5090065;28;20204;-90
2022/12/19 10:13:08;;;;;;;25.30;12.63;;;;;;;2.60;100.00;97204.59;5091087;28;20216;-89
2022/12/19 10:15:47;;;;;;;19.07;10.90;;;;;;;2.80;100.00;97218.50;5083964;28;20204;-90
2022/12/19 10:18:31;;;;;;;12.80;7.30;;;;;;;2.82;100.00;97210.31;5087021;28;20219;-89
2022/12/19 10:21:06;;;;;;;10.47;7.00;;;;;;;2.74;100.00;97211.13;5076219;28;20204;-88
2022/12/19 10:24:00;;;;;;;10.50;6.33;;;;;;;2.78;100.00;97217.81;5081769;28;20261;-89
2022/12/19 10:26:35;;;;;;;12.90;7.37;;;;;;;2.86;100.00;97225.84;5080244;28;20227;-90
2022/12/19 10:29:20;;;;;;;12.57;7.27;;;;;;;2.95;100.00;97214.22;5085796;28;20210;-87
2022/12/19 10:31:54;;;;;;;11.40;6.53;;;;;;;2.99;100.00;97212.88;5082805;28;20188;-86
2022/12/19 10:34:30;;;;;;;11.03;7.40;;;;;;;3.15;100.00;97228.09;5078605;28;20197;-89
2022/12/19 10:37:01;;;;;;;15.17;8.70;;;;;;;3.14;100.00;97220.28;5083398;28;20232;-91
2022/12/19 10:39:31;;;;;;;15.10;8.60;;;;;;;3.04;100.00;97213.25;5089630;28;20291;-88
2022/12/19 10:42:22;;;;;;;17.43;9.23;;;;;;;3.01;100.00;97207.41;5083645;28;20219;-88
2022/12/19 10:44:53;;;;;;;17.33;9.47;;;;;;;3.14;100.00;97210.44;5087523;28;20201;-87
2022/12/19 10:47:21;;;;;;;19.07;12.00;;;;;;;3.14;100.00;97209.63;5082514;28;20303;-90
2022/12/19 10:49:55;;;;;;;19.63;10.53;;;;;;;3.17;100.00;97206.59;5086740;28;20205;-88
2022/12/19 10:52:52;;;;;;;12.13;7.80;;;;;;;3.18;100.00;97203.78;5086849;28;20196;-86
2022/12/19 10:55:42;;;;;;;11.07;7.10;;;;;;;3.15;100.00;97182.75;5084978;28;20260;-87
2022/12/19 10:58:20;;;;;;;8.93;6.17;;;;;;;3.22;100.00;97194.44;5074290;28;20209;-89
2022/12/19 11:01:01;;;;;;;11.03;6.90;;;;;;;3.30;100.00;97196.31;5089203;28;20204;-84
2022/12/19 11:03:29;;;;;;;13.17;7.80;;;;;;;3.45;100.00;97199.16;5079806;28;20209;-88
2022/12/19 11:05:58;;;;;;;11.63;7.10;;;;;;;3.54;100.00;97191.00;5090891;28;20304;-84
2022/12/19 11:08:27;;;;;;;11.60;6.87;;;;;;;3.69;100.00;97191.97;5089377;28;20291;-86
2022/12/19 11:10:59;;;;;;;13.47;7.97;;;;;;;3.73;100.00;97182.66;5084698;28;20201;-90
2022/12/19 11:13:41;;;;;;;14.83;9.33;;;;;;;3.92;100.00;97185.97;5084385;28;20201;-90
2022/12/19 11:16:10;;;;;;;12.00;7.47;;;;;;;3.84;100.00;97178.78;5077013;28;20202;-85
2022/12/19 11:18:39;;;;;;;12.03;8.40;;;;;;;3.86;100.00;97166.09;5085679;28;20229;-86
2022/12/19 11:21:17;;;;;;;14.00;7.37;;;;;;;3.75;100.00;97164.59;5082869;28;20212;-86
2022/12/19 11:23:53;;;;;;;9.43;6.57;;;;;;;3.87;100.00;97180.28;5081110;28;20230;-89
2022/12/19 11:26:32;;;;;;;11.57;5.87;;;;;;;3.86;100.00;97176.78;5091576;28;20215;-86
2022/12/19 11:29:16;;;;;;;12.70;7.13;;;;;;;3.97;100.00;97164.94;5083919;28;20201;-88
2022/12/19 11:31:45;;;;;;;11.03;6.13;;;;;;;3.94;100.00;97173.28;5084553;28;20219;-87
2022/12/19 11:34:15;;;;;;;11.20;6.70;;;;;;;3.90;100.00;97169.28;5082877;28;20205;-87
2022/12/19 11:36:50;;;;;;;11.73;5.87;;;;;;;3.88;100.00;97152.59;5082119;28;20289;-90